• Join FlightAware (Why Join?)
  • Login
  • US Flag 
04:50AM EDT


 

Airport Tracker/Info


-or-


 

Live Flight TrackerFlight Track Log ✈ OPT438 ✈ 18-Feb-2014 ✈ KMDW - KRFD

Flight Track Log - Related Links

Times and Time Zones

All times are in EST time to prevent confusion due to time zone crossing. See the OPT438 flight status page for this flight to view local times or setup timezone preferences in your user account.

Time Position Orientation Groundspeed Altitude Reporting Facility
EST Latitude Longitude Course Direction KTS MPH feet Rate Location/Type
09:14AM 41.7667 -87.8000 270° West 178 205 2,900  Level Chicago TRACON
09:15AM 41.7667 -87.8667 270° West 221 254 3,000 420 Climbing Chicago TRACON
09:16AM 41.7667 -87.9667 270° West 235 270 3,800 420 Climbing Chicago TRACON
09:17AM 41.7667 -88.0500 270° West 239 275 4,000 120 Climbing Chicago TRACON
09:18AM 41.7764 -88.1064 283° West 258 297 4,000  Level Chicago Center
09:19AM 41.7972 -88.1853 290° West 230 265 4,000  Level Chicago Center
09:20AM 41.8206 -88.2622 292° West 230 265 4,000  Level Chicago Center
09:21AM 41.8450 -88.3400 293° West 228 262 4,000  Level Chicago Center
09:22AM 41.8650 -88.4108 291° West 250 288 4,000  Level Chicago Center
09:23AM 41.8994 -88.5111 295° West 247 284 4,000  Level Chicago Center
09:24AM 41.9192 -88.5889 289° West 238 274 4,000  Level Chicago Center
09:25AM 41.9194 -88.6700 270° West 226 260 4,000  Level Chicago Center
09:26AM 41.9203 -88.7525 271° West 222 255 4,000  Level Chicago Center
09:27AM 41.9206 -88.8317 270° West 218 251 4,000  Level Chicago Center
09:28AM 41.9467 -88.9017 297° West 234 269 4,000  Level Chicago Center
09:29AM 42.0136 -88.9219 347° North 248 285 4,000  Level Chicago Center
09:30AM 42.0958 -88.9525 345° North 251 289 4,000  Level Chicago Center
09:31AM 42.1650 -88.9706 349° North 254 292 4,000 -360 Level Chicago Center
09:32AM 42.2339 -88.9672 North 251 289 3,300 -720 Descending Chicago Center
09:33AM 42.2439 -89.0314 282° West 206 237 2,600 -720 Descending Chicago Center